sensor_id;sensor_type;location;lat;lon;timestamp;temperature;humidity
14551;DHT22;7362;50.956;4.184;2022-09-25T10:22:06;16.30;99.90
14551;DHT22;7362;50.956;4.184;2022-09-25T10:25:01;16.50;99.90
14551;DHT22;7362;50.956;4.184;2022-09-25T10:30:53;16.70;99.90
14551;DHT22;7362;50.956;4.184;2022-09-25T10:33:25;16.70;99.90
14551;DHT22;7362;50.956;4.184;2022-09-25T10:35:53;16.90;99.90
14551;DHT22;7362;50.956;4.184;2022-09-25T10:38:32;16.90;99.90
14551;DHT22;7362;50.956;4.184;2022-09-25T10:41:13;17.10;99.90
14551;DHT22;7362;50.956;4.184;2022-09-25T10:54:35;18.10;99.90
14551;DHT22;7362;50.956;4.184;2022-09-25T10:57:30;18.20;99.90
14551;DHT22;7362;50.956;4.184;2022-09-25T11:00:27;18.00;99.90
14551;DHT22;7362;50.956;4.184;2022-09-25T11:02:59;17.90;99.90
14551;DHT22;7362;50.956;4.184;2022-09-25T11:05:28;17.80;99.90
14551;DHT22;7362;50.956;4.184;2022-09-25T11:08:00;17.50;99.90
14551;DHT22;7362;50.956;4.184;2022-09-25T11:10:30;17.40;99.90
14551;DHT22;7362;50.956;4.184;2022-09-25T11:12:57;17.50;99.90
14551;DHT22;7362;50.956;4.184;2022-09-25T11:15:27;17.80;99.90
14551;DHT22;7362;50.956;4.184;2022-09-25T11:21:40;18.10;99.90
14551;DHT22;7362;50.956;4.184;2022-09-25T11:27:39;18.10;99.90
14551;DHT22;7362;50.956;4.184;2022-09-25T11:30:19;18.10;99.90
14551;DHT22;7362;50.956;4.184;2022-09-25T11:33:25;18.10;99.90
14551;DHT22;7362;50.956;4.184;2022-09-25T11:36:07;18.30;99.90
14551;DHT22;7362;50.956;4.184;2022-09-25T11:38:47;18.80;99.90
14551;DHT22;7362;50.956;4.184;2022-09-25T11:41:49;19.20;99.90
14551;DHT22;7362;50.956;4.184;2022-09-25T11:44:42;19.10;99.90
14551;DHT22;7362;50.956;4.184;2022-09-25T11:47:20;18.80;99.90
14551;DHT22;7362;50.956;4.184;2022-09-25T11:49:51;18.50;99.90
14551;DHT22;7362;50.956;4.184;2022-09-25T11:53:32;18.00;99.90
14551;DHT22;7362;50.956;4.184;2022-09-25T11:56:01;17.70;99.90
14551;DHT22;7362;50.956;4.184;2022-09-25T12:11:16;18.40;99.90
14551;DHT22;7362;50.956;4.184;2022-09-25T12:18:59;18.10;99.90
14551;DHT22;7362;50.956;4.184;2022-09-25T12:21:44;17.90;99.90
14551;DHT22;7362;50.956;4.184;2022-09-25T12:27:17;17.90;99.90
14551;DHT22;7362;50.956;4.184;2022-09-25T12:38:54;18.40;99.90
14551;DHT22;7362;50.956;4.184;2022-09-25T12:41:28;18.40;99.90
14551;DHT22;7362;50.956;4.184;2022-09-25T12:44:16;18.30;99.90
14551;DHT22;7362;50.956;4.184;2022-09-25T12:46:56;18.00;99.90
14551;DHT22;7362;50.956;4.184;2022-09-25T12:49:30;17.90;99.90
14551;DHT22;7362;50.956;4.184;2022-09-25T12:52:01;18.10;99.90
14551;DHT22;7362;50.956;4.184;2022-09-25T12:55:28;18.00;99.90
14551;DHT22;7362;50.956;4.184;2022-09-25T12:57:44;18.20;99.90
14551;DHT22;7362;50.956;4.184;2022-09-25T13:00:23;18.00;99.90
14551;DHT22;7362;50.956;4.184;2022-09-25T13:03:14;18.00;99.90
14551;DHT22;7362;50.956;4.184;2022-09-25T13:06:10;17.80;99.90
14551;DHT22;7362;50.956;4.184;2022-09-25T13:08:47;17.40;99.90
14551;DHT22;7362;50.956;4.184;2022-09-25T13:14:01;17.40;99.90
14551;DHT22;7362;50.956;4.184;2022-09-25T13:16:28;17.60;99.90
14551;DHT22;7362;50.956;4.184;2022-09-25T13:19:21;17.60;99.90
14551;DHT22;7362;50.956;4.184;2022-09-25T13:22:11;17.40;99.90
14551;DHT22;7362;50.956;4.184;2022-09-25T13:28:12;17.30;99.90
14551;DHT22;7362;50.956;4.184;2022-09-25T13:34:11;17.40;99.90
14551;DHT22;7362;50.956;4.184;2022-09-25T13:36:51;17.40;99.90
14551;DHT22;7362;50.956;4.184;2022-09-25T13:42:44;17.80;99.90
14551;DHT22;7362;50.956;4.184;2022-09-25T13:45:32;17.90;99.90
14551;DHT22;7362;50.956;4.184;2022-09-25T14:01:46;18.20;99.90
14551;DHT22;7362;50.956;4.184;2022-09-25T14:06:42;18.00;99.90
14551;DHT22;7362;50.956;4.184;2022-09-25T14:09:12;18.20;99.90
14551;DHT22;7362;50.956;4.184;2022-09-25T14:11:40;18.10;99.90
14551;DHT22;7362;50.956;4.184;2022-09-25T14:14:19;18.00;99.90
14551;DHT22;7362;50.956;4.184;2022-09-25T14:16:54;17.90;99.90
14551;DHT22;7362;50.956;4.184;2022-09-25T14:19:31;17.80;99.90
14551;DHT22;7362;50.956;4.184;2022-09-25T14:22:02;17.80;99.90
14551;DHT22;7362;50.956;4.184;2022-09-25T14:24:30;17.90;99.90
14551;DHT22;7362;50.956;4.184;2022-09-25T14:26:57;17.90;99.90
14551;DHT22;7362;50.956;4.184;2022-09-25T14:29:47;17.60;99.90
14551;DHT22;7362;50.956;4.184;2022-09-25T14:35:22;17.80;99.90
14551;DHT22;7362;50.956;4.184;2022-09-25T14:46:13;18.00;99.90
14551;DHT22;7362;50.956;4.184;2022-09-25T14:49:11;18.00;99.90
14551;DHT22;7362;50.956;4.184;2022-09-25T14:51:44;17.80;99.90
14551;DHT22;7362;50.956;4.184;2022-09-25T14:54:20;17.80;99.90
14551;DHT22;7362;50.956;4.184;2022-09-25T14:56:49;17.80;99.90
14551;DHT22;7362;50.956;4.184;2022-09-25T15:04:33;17.90;99.90
14551;DHT22;7362;50.956;4.184;2022-09-25T15:09:40;17.90;99.90
14551;DHT22;7362;50.956;4.184;2022-09-25T15:12:23;17.80;99.90
14551;DHT22;7362;50.956;4.184;2022-09-25T15:18:03;17.60;99.90
14551;DHT22;7362;50.956;4.184;2022-09-25T15:20:36;17.60;99.90
14551;DHT22;7362;50.956;4.184;2022-09-25T15:23:17;17.70;99.90
14551;DHT22;7362;50.956;4.184;2022-09-25T15:26:11;17.70;99.90
14551;DHT22;7362;50.956;4.184;2022-09-25T15:28:51;17.80;99.90
14551;DHT22;7362;50.956;4.184;2022-09-25T15:34:32;17.70;99.90
14551;DHT22;7362;50.956;4.184;2022-09-25T15:40:24;17.90;99.90
14551;DHT22;7362;50.956;4.184;2022-09-25T15:42:55;17.90;99.90
14551;DHT22;7362;50.956;4.184;2022-09-25T15:48:12;18.00;99.90
14551;DHT22;7362;50.956;4.184;2022-09-25T15:50:43;18.00;99.90
14551;DHT22;7362;50.956;4.184;2022-09-25T15:53:19;18.00;99.90
14551;DHT22;7362;50.956;4.184;2022-09-25T15:55:59;18.10;99.90
14551;DHT22;7362;50.956;4.184;2022-09-25T15:58:25;18.00;99.90
14551;DHT22;7362;50.956;4.184;2022-09-25T16:00:59;18.00;99.90
14551;DHT22;7362;50.956;4.184;2022-09-25T16:03:51;18.00;99.90
14551;DHT22;7362;50.956;4.184;2022-09-25T16:06:40;17.90;99.90
14551;DHT22;7362;50.956;4.184;2022-09-25T16:11:49;18.00;99.90
14551;DHT22;7362;50.956;4.184;2022-09-25T16:14:27;18.00;99.90
14551;DHT22;7362;50.956;4.184;2022-09-25T16:16:56;17.70;99.90
14551;DHT22;7362;50.956;4.184;2022-09-25T16:21:56;17.20;99.90
14551;DHT22;7362;50.956;4.184;2022-09-25T16:24:28;17.10;99.90
14551;DHT22;7362;50.956;4.184;2022-09-25T16:27:03;17.00;99.90
14551;DHT22;7362;50.956;4.184;2022-09-25T16:29:32;16.90;99.90
14551;DHT22;7362;50.956;4.184;2022-09-25T16:32:19;16.90;99.90
14551;DHT22;7362;50.956;4.184;2022-09-25T16:35:03;16.80;99.90
14551;DHT22;7362;50.956;4.184;2022-09-25T16:37:36;16.80;99.90
14551;DHT22;7362;50.956;4.184;2022-09-25T16:40:24;16.70;99.90
14551;DHT22;7362;50.956;4.184;2022-09-25T16:42:54;16.50;99.90
14551;DHT22;7362;50.956;4.184;2022-09-25T16:45:27;16.50;99.90
14551;DHT22;7362;50.956;4.184;2022-09-25T16:50:47;16.30;99.90
14551;DHT22;7362;50.956;4.184;2022-09-25T16:53:37;16.20;99.90
14551;DHT22;7362;50.956;4.184;2022-09-25T16:56:04;16.30;99.90
14551;DHT22;7362;50.956;4.184;2022-09-25T16:58:30;16.10;99.90
14551;DHT22;7362;50.956;4.184;2022-09-25T17:00:56;16.20;99.90
14551;DHT22;7362;50.956;4.184;2022-09-25T17:03:24;16.10;99.90
14551;DHT22;7362;50.956;4.184;2022-09-25T17:05:49;16.00;99.90
14551;DHT22;7362;50.956;4.184;2022-09-25T17:08:20;16.00;99.90
14551;DHT22;7362;50.956;4.184;2022-09-25T17:10:50;16.00;99.90
14551;DHT22;7362;50.956;4.184;2022-09-25T17:13:38;16.00;99.90
14551;DHT22;7362;50.956;4.184;2022-09-25T17:16:05;16.00;99.90
14551;DHT22;7362;50.956;4.184;2022-09-25T17:18:39;16.00;99.90
14551;DHT22;7362;50.956;4.184;2022-09-25T17:21:15;15.90;99.90
14551;DHT22;7362;50.956;4.184;2022-09-25T17:23:44;15.90;99.90
14551;DHT22;7362;50.956;4.184;2022-09-25T17:26:22;15.90;99.90
14551;DHT22;7362;50.956;4.184;2022-09-25T17:28:50;16.00;99.90
14551;DHT22;7362;50.956;4.184;2022-09-25T17:34:15;15.90;99.90
14551;DHT22;7362;50.956;4.184;2022-09-25T17:36:50;16.00;99.90
14551;DHT22;7362;50.956;4.184;2022-09-25T17:39:16;16.10;99.90
14551;DHT22;7362;50.956;4.184;2022-09-25T17:41:43;16.10;99.90
14551;DHT22;7362;50.956;4.184;2022-09-25T17:44:14;15.90;99.90
14551;DHT22;7362;50.956;4.184;2022-09-25T17:46:41;15.90;99.90
14551;DHT22;7362;50.956;4.184;2022-09-25T17:49:07;15.80;99.90
14551;DHT22;7362;50.956;4.184;2022-09-25T17:51:35;15.70;99.90
14551;DHT22;7362;50.956;4.184;2022-09-25T17:54:04;15.70;99.90
14551;DHT22;7362;50.956;4.184;2022-09-25T17:56:33;15.60;99.90
14551;DHT22;7362;50.956;4.184;2022-09-25T17:59:07;15.50;99.90
14551;DHT22;7362;50.956;4.184;2022-09-25T18:01:41;15.50;99.90
14551;DHT22;7362;50.956;4.184;2022-09-25T18:07:34;15.40;99.90
14551;DHT22;7362;50.956;4.184;2022-09-25T18:10:03;15.30;99.90
14551;DHT22;7362;50.956;4.184;2022-09-25T18:12:30;15.10;99.90
14551;DHT22;7362;50.956;4.184;2022-09-25T18:20:42;14.90;99.90
14551;DHT22;7362;50.956;4.184;2022-09-25T18:23:41;14.90;99.90
14551;DHT22;7362;50.956;4.184;2022-09-25T18:26:21;14.90;99.90
14551;DHT22;7362;50.956;4.184;2022-09-25T18:29:10;15.00;99.90
14551;DHT22;7362;50.956;4.184;2022-09-25T18:31:43;14.90;99.90
14551;DHT22;7362;50.956;4.184;2022-09-25T18:34:11;14.80;99.90
14551;DHT22;7362;50.956;4.184;2022-09-25T18:36:37;14.70;99.90
14551;DHT22;7362;50.956;4.184;2022-09-25T18:39:03;14.70;99.90
14551;DHT22;7362;50.956;4.184;2022-09-25T18:41:29;14.70;99.90
14551;DHT22;7362;50.956;4.184;2022-09-25T18:43:58;14.70;99.90
14551;DHT22;7362;50.956;4.184;2022-09-25T18:46:36;14.60;99.90
14551;DHT22;7362;50.956;4.184;2022-09-25T18:49:16;14.50;99.90
14551;DHT22;7362;50.956;4.184;2022-09-25T18:51:46;14.40;99.90
14551;DHT22;7362;50.956;4.184;2022-09-25T18:54:26;14.50;99.90
14551;DHT22;7362;50.956;4.184;2022-09-25T18:56:53;14.40;99.90
14551;DHT22;7362;50.956;4.184;2022-09-25T18:59:20;14.30;99.90
14551;DHT22;7362;50.956;4.184;2022-09-25T19:01:52;14.20;99.90
14551;DHT22;7362;50.956;4.184;2022-09-25T19:04:22;14.20;99.90
14551;DHT22;7362;50.956;4.184;2022-09-25T19:06:55;14.30;99.90
14551;DHT22;7362;50.956;4.184;2022-09-25T19:14:50;14.30;99.90
14551;DHT22;7362;50.956;4.184;2022-09-25T19:17:21;14.30;99.90
14551;DHT22;7362;50.956;4.184;2022-09-25T19:19:48;14.40;99.90
14551;DHT22;7362;50.956;4.184;2022-09-25T19:22:27;14.40;99.90
14551;DHT22;7362;50.956;4.184;2022-09-25T19:24:54;14.40;99.90
14551;DHT22;7362;50.956;4.184;2022-09-25T19:27:24;14.40;99.90
14551;DHT22;7362;50.956;4.184;2022-09-25T19:29:50;14.30;99.90
14551;DHT22;7362;50.956;4.184;2022-09-25T19:32:18;14.40;99.90
14551;DHT22;7362;50.956;4.184;2022-09-25T19:34:46;14.40;99.90
14551;DHT22;7362;50.956;4.184;2022-09-25T19:37:18;14.30;99.90
14551;DHT22;7362;50.956;4.184;2022-09-25T19:39:45;14.30;99.90
14551;DHT22;7362;50.956;4.184;2022-09-25T19:42:29;14.30;99.90
14551;DHT22;7362;50.956;4.184;2022-09-25T19:45:00;14.20;99.90
14551;DHT22;7362;50.956;4.184;2022-09-25T19:47:27;14.20;99.90
14551;DHT22;7362;50.956;4.184;2022-09-25T19:49:54;14.10;99.90
14551;DHT22;7362;50.956;4.184;2022-09-25T19:52:26;14.10;99.90
14551;DHT22;7362;50.956;4.184;2022-09-25T19:55:05;14.00;99.90
14551;DHT22;7362;50.956;4.184;2022-09-25T19:57:35;14.00;99.90
14551;DHT22;7362;50.956;4.184;2022-09-25T20:00:05;14.00;99.90
14551;DHT22;7362;50.956;4.184;2022-09-25T20:02:34;14.00;99.90
14551;DHT22;7362;50.956;4.184;2022-09-25T20:05:02;14.00;99.90
14551;DHT22;7362;50.956;4.184;2022-09-25T20:07:30;14.10;99.90
14551;DHT22;7362;50.956;4.184;2022-09-25T20:09:57;14.00;99.90
14551;DHT22;7362;50.956;4.184;2022-09-25T20:12:27;14.10;99.90
14551;DHT22;7362;50.956;4.184;2022-09-25T20:14:56;14.10;99.90
14551;DHT22;7362;50.956;4.184;2022-09-25T20:17:25;14.00;99.90
14551;DHT22;7362;50.956;4.184;2022-09-25T20:19:53;13.90;99.90
14551;DHT22;7362;50.956;4.184;2022-09-25T20:22:19;13.90;99.90
14551;DHT22;7362;50.956;4.184;2022-09-25T20:24:48;13.90;99.90
14551;DHT22;7362;50.956;4.184;2022-09-25T20:27:19;13.90;99.90
14551;DHT22;7362;50.956;4.184;2022-09-25T20:29:55;13.80;99.90
14551;DHT22;7362;50.956;4.184;2022-09-25T20:32:22;13.80;99.90
14551;DHT22;7362;50.956;4.184;2022-09-25T20:34:49;13.80;99.90
14551;DHT22;7362;50.956;4.184;2022-09-25T20:37:19;13.80;99.90
14551;DHT22;7362;50.956;4.184;2022-09-25T20:39:47;13.60;99.90
14551;DHT22;7362;50.956;4.184;2022-09-25T20:42:19;13.60;99.90
14551;DHT22;7362;50.956;4.184;2022-09-25T20:44:54;13.50;99.90
14551;DHT22;7362;50.956;4.184;2022-09-25T20:47:36;13.40;99.90
14551;DHT22;7362;50.956;4.184;2022-09-25T20:50:08;13.30;99.90
14551;DHT22;7362;50.956;4.184;2022-09-25T20:53:02;13.30;99.90
14551;DHT22;7362;50.956;4.184;2022-09-25T20:55:30;13.30;99.90
14551;DHT22;7362;50.956;4.184;2022-09-25T21:00:38;13.10;99.90
14551;DHT22;7362;50.956;4.184;2022-09-25T21:06:22;13.10;99.90
14551;DHT22;7362;50.956;4.184;2022-09-25T21:09:09;13.00;99.90
14551;DHT22;7362;50.956;4.184;2022-09-25T21:11:39;13.00;99.90
14551;DHT22;7362;50.956;4.184;2022-09-25T21:14:25;13.00;99.90
14551;DHT22;7362;50.956;4.184;2022-09-25T21:16:56;13.00;99.90
14551;DHT22;7362;50.956;4.184;2022-09-25T21:19:51;13.00;99.90
14551;DHT22;7362;50.956;4.184;2022-09-25T21:22:46;12.90;99.90
14551;DHT22;7362;50.956;4.184;2022-09-25T21:25:43;12.90;99.90
14551;DHT22;7362;50.956;4.184;2022-09-25T21:28:11;12.80;99.90
14551;DHT22;7362;50.956;4.184;2022-09-25T21:30:48;12.70;99.90
14551;DHT22;7362;50.956;4.184;2022-09-25T21:33:42;12.70;99.90
14551;DHT22;7362;50.956;4.184;2022-09-25T21:36:24;12.70;99.90
14551;DHT22;7362;50.956;4.184;2022-09-25T21:38:49;12.60;99.90
14551;DHT22;7362;50.956;4.184;2022-09-25T21:41:19;12.60;99.90
14551;DHT22;7362;50.956;4.184;2022-09-25T21:43:53;12.60;99.90
14551;DHT22;7362;50.956;4.184;2022-09-25T21:46:22;12.70;99.90
14551;DHT22;7362;50.956;4.184;2022-09-25T21:48:59;12.50;99.90
14551;DHT22;7362;50.956;4.184;2022-09-25T21:51:30;12.40;99.90
14551;DHT22;7362;50.956;4.184;2022-09-25T21:53:56;12.30;99.90
14551;DHT22;7362;50.956;4.184;2022-09-25T21:56:25;12.30;99.90
14551;DHT22;7362;50.956;4.184;2022-09-25T21:58:51;12.30;99.90
14551;DHT22;7362;50.956;4.184;2022-09-25T22:01:26;12.20;99.90
14551;DHT22;7362;50.956;4.184;2022-09-25T22:03:56;12.20;99.90
14551;DHT22;7362;50.956;4.184;2022-09-25T22:06:34;12.20;99.90
14551;DHT22;7362;50.956;4.184;2022-09-25T22:09:14;12.20;99.90
14551;DHT22;7362;50.956;4.184;2022-09-25T22:11:41;12.30;99.90
14551;DHT22;7362;50.956;4.184;2022-09-25T22:14:10;12.40;99.90
14551;DHT22;7362;50.956;4.184;2022-09-25T22:16:58;12.30;99.90
14551;DHT22;7362;50.956;4.184;2022-09-25T22:19:30;12.30;99.90
14551;DHT22;7362;50.956;4.184;2022-09-25T22:21:57;12.20;99.90
14551;DHT22;7362;50.956;4.184;2022-09-25T22:27:38;12.50;99.90
14551;DHT22;7362;50.956;4.184;2022-09-25T22:46:09;12.30;99.90
14551;DHT22;7362;50.956;4.184;2022-09-25T22:48:46;12.20;99.90
14551;DHT22;7362;50.956;4.184;2022-09-25T23:07:18;12.30;99.90
14551;DHT22;7362;50.956;4.184;2022-09-25T23:10:19;12.30;99.90
14551;DHT22;7362;50.956;4.184;2022-09-25T23:18:47;12.30;99.90
14551;DHT22;7362;50.956;4.184;2022-09-25T23:21:16;12.50;99.90
14551;DHT22;7362;50.956;4.184;2022-09-25T23:23:44;12.40;99.90
14551;DHT22;7362;50.956;4.184;2022-09-25T23:26:22;12.40;99.90
14551;DHT22;7362;50.956;4.184;2022-09-25T23:29:15;12.40;99.90
14551;DHT22;7362;50.956;4.184;2022-09-25T23:35:07;12.40;99.90
14551;DHT22;7362;50.956;4.184;2022-09-25T23:37:33;12.40;99.90
14551;DHT22;7362;50.956;4.184;2022-09-25T23:39:58;12.30;99.90
14551;DHT22;7362;50.956;4.184;2022-09-25T23:42:25;12.30;99.90
14551;DHT22;7362;50.956;4.184;2022-09-25T23:44:51;12.30;99.90
14551;DHT22;7362;50.956;4.184;2022-09-25T23:47:17;12.30;99.90
14551;DHT22;7362;50.956;4.184;2022-09-25T23:49:42;12.30;99.90
14551;DHT22;7362;50.956;4.184;2022-09-25T23:52:08;12.20;99.90
14551;DHT22;7362;50.956;4.184;2022-09-25T23:54:35;12.20;99.90
14551;DHT22;7362;50.956;4.184;2022-09-25T23:57:01;12.20;99.90
14551;DHT22;7362;50.956;4.184;2022-09-25T23:59:28;12.10;99.90
